Time;durP1;ratioP1;P1;durP2;ratioP2;P2;SDS_P1;SDS_P2;PMS_P1;PMS_P2;Temp;Humidity;BMP_temperature;BMP_pressure;BME280_temperature;BME280_humidity;BME280_pressure;Samples;Min_cycle;Max_cycle;Signal;HPM_P1;HPM_P2
2021/08/30 00:00:19;;;;;;;;;;;;;;;23.95;48.21;99483.25;2057731;28;19922;-64
2021/08/30 00:01:20;;;;;;;;;;;;;;;23.94;48.16;99481.56;2056582;28;19925;-64
2021/08/30 00:02:20;;;;;;;;;;;;;;;23.94;48.19;99482.41;2059296;28;20005;-64
2021/08/30 00:03:20;;;;;;;;;;;;;;;23.94;48.23;99487.91;2059717;28;19936;-64
2021/08/30 00:04:21;;;;;;;;;;;;;;;23.95;48.31;99484.09;2057563;28;19925;-64
2021/08/30 00:05:21;;;;;;;;;;;;;;;23.94;48.21;99487.91;2058032;28;19914;-64
2021/08/30 00:06:21;;;;;;;;;;;;;;;23.95;48.14;99491.50;2058660;28;19945;-64
2021/08/30 00:07:22;;;;;;;;;;;;;;;23.95;48.23;99486.84;2060533;28;19921;-64
2021/08/30 00:08:22;;;;;;;;;;;;;;;23.95;48.21;99484.09;2059917;28;19994;-64
2021/08/30 00:09:22;;;;;;;;;;;;;;;23.95;48.20;99486.00;2061160;28;19933;-64
2021/08/30 00:10:23;;;;;;;;;;;;;;;23.93;48.33;99486.22;2053878;28;19921;-64
2021/08/30 00:11:24;;;;;;;;;;;;;;;23.94;48.24;99485.16;2056044;28;19944;-64
2021/08/30 00:12:24;;;;;;;;;;;;;;;23.93;48.31;99479.84;2054949;28;20626;-64
2021/08/30 00:13:25;;;;;;;;;;;;;;;23.94;48.24;99487.91;2062926;28;19921;-65
2021/08/30 00:14:25;;;;;;;;;;;;;;;23.93;48.31;99485.34;2063127;28;19921;-64
2021/08/30 00:15:25;;;;;;;;;;;;;;;23.93;48.28;99488.97;2061557;28;20024;-64
2021/08/30 00:16:26;;;;;;;;;;;;;;;23.93;48.37;99497.22;2056269;28;19926;-65
2021/08/30 00:17:26;;;;;;;;;;;;;;;23.93;48.29;99491.72;2063566;28;20363;-64
2021/08/30 00:18:26;;;;;;;;;;;;;;;23.93;48.35;99494.47;2059746;28;20388;-64
2021/08/30 00:19:29;;;;;;;;;;;;;;;23.92;48.41;99490.00;2057502;28;19926;-64
2021/08/30 00:20:29;;;;;;;;;;;;;;;23.93;48.43;99496.34;2059504;28;20008;-64
2021/08/30 00:21:29;;;;;;;;;;;;;;;23.93;48.43;99497.22;2051992;28;19948;-64
2021/08/30 00:22:30;;;;;;;;;;;;;;;23.92;48.46;99494.66;2064008;28;20012;-63
2021/08/30 00:23:30;;;;;;;;;;;;;;;23.93;48.46;99493.59;2061273;28;20416;-64
2021/08/30 00:24:31;;;;;;;;;;;;;;;23.92;48.40;99498.25;2059457;28;20013;-64
2021/08/30 00:25:31;;;;;;;;;;;;;;;23.92;48.38;99497.41;2060987;28;19937;-64
2021/08/30 00:26:32;;;;;;;;;;;;;;;23.92;48.39;99492.75;2060787;28;19921;-64
2021/08/30 00:27:32;;;;;;;;;;;;;;;23.92;48.48;99492.75;2058781;28;20271;-64
2021/08/30 00:28:32;;;;;;;;;;;;;;;23.92;48.37;99498.25;2056771;28;20315;-64
2021/08/30 00:29:33;;;;;;;;;;;;;;;23.92;48.48;99495.50;2058352;28;20675;-64
2021/08/30 00:30:33;;;;;;;;;;;;;;;23.91;48.47;99493.81;2060637;28;19917;-64
2021/08/30 00:31:34;;;;;;;;;;;;;;;23.92;48.45;99489.16;2057860;28;20861;-64
2021/08/30 00:32:34;;;;;;;;;;;;;;;23.90;48.44;99486.59;2059402;28;20525;-64
2021/08/30 00:33:34;;;;;;;;;;;;;;;23.91;48.44;99488.31;2056669;28;20024;-64
2021/08/30 00:34:35;;;;;;;;;;;;;;;23.91;48.53;99491.06;2055789;28;19918;-63
2021/08/30 00:35:37;;;;;;;;;;;;;;;23.90;48.45;99486.59;2054187;28;19928;-64
2021/08/30 00:36:37;;;;;;;;;;;;;;;23.90;48.51;99480.22;2057245;28;20059;-64
2021/08/30 00:37:37;;;;;;;;;;;;;;;23.90;48.55;99486.59;2058861;28;19967;-64
2021/08/30 00:38:38;;;;;;;;;;;;;;;23.90;48.57;99492.09;2056422;28;20015;-64
2021/08/30 00:39:38;;;;;;;;;;;;;;;23.90;48.50;99488.50;2054169;28;19921;-64
2021/08/30 00:40:38;;;;;;;;;;;;;;;23.90;48.45;99489.34;2060863;28;19928;-64
2021/08/30 00:41:38;;;;;;;;;;;;;;;23.89;48.55;99495.91;2057780;28;20391;-64
2021/08/30 00:42:39;;;;;;;;;;;;;;;23.90;48.48;99497.59;2054340;28;20790;-64
2021/08/30 00:43:39;;;;;;;;;;;;;;;23.91;48.60;99487.44;2052999;28;20021;-64
2021/08/30 00:44:39;;;;;;;;;;;;;;;23.89;48.58;99493.16;2055868;28;19964;-64
2021/08/30 00:45:40;;;;;;;;;;;;;;;23.89;48.49;99493.16;2055741;28;19970;-64
2021/08/30 00:46:41;;;;;;;;;;;;;;;23.90;48.54;99492.09;2060492;28;20422;-65
2021/08/30 00:47:42;;;;;;;;;;;;;;;23.90;48.57;99491.25;2059991;28;20304;-65
2021/08/30 00:48:46;;;;;;;;;;;;;;;23.89;48.49;99495.91;2060377;28;19944;-64
2021/08/30 00:49:47;;;;;;;;;;;;;;;23.89;48.58;99493.16;2059617;28;20836;-65
2021/08/30 00:50:47;;;;;;;;;;;;;;;23.90;48.45;99491.25;2057498;28;19999;-64
2021/08/30 00:51:48;;;;;;;;;;;;;;;23.90;48.41;99491.25;2056811;28;19926;-65
2021/08/30 00:52:48;;;;;;;;;;;;;;;23.89;48.63;99490.41;2057950;28;19918;-65
2021/08/30 00:53:49;;;;;;;;;;;;;;;23.89;48.56;99495.91;2060195;28;19921;-65
2021/08/30 00:54:50;;;;;;;;;;;;;;;23.89;48.71;99495.91;2058395;28;19965;-65
2021/08/30 00:55:50;;;;;;;;;;;;;;;23.88;48.59;99488.69;2058275;28;19922;-64
2021/08/30 00:56:51;;;;;;;;;;;;;;;23.89;48.64;99489.56;2058332;28;19926;-65
2021/08/30 00:57:51;;;;;;;;;;;;;;;23.88;48.72;99488.69;2060925;28;19951;-65
2021/08/30 00:58:51;;;;;;;;;;;;;;;23.88;48.63;99488.69;2056073;28;19928;-65
2021/08/30 00:59:52;;;;;;;;;;;;;;;23.88;48.64;99485.91;2058866;28;19921;-65
2021/08/30 01:00:52;;;;;;;;;;;;;;;23.89;48.62;99489.56;2056191;28;19921;-65
2021/08/30 01:01:52;;;;;;;;;;;;;;;23.88;48.95;99477.66;2059362;28;19922;-65
2021/08/30 01:02:53;;;;;;;;;;;;;;;23.87;48.71;99478.72;2057060;28;19922;-65
2021/08/30 01:03:53;;;;;;;;;;;;;;;23.88;48.65;99483.16;2057655;28;19921;-65
2021/08/30 01:04:53;;;;;;;;;;;;;;;23.88;48.69;99483.16;2057159;28;19922;-65
2021/08/30 01:05:59;;;;;;;;;;;;;;;23.87;48.76;99470.47;2060553;28;19956;-65
2021/08/30 01:07:06;;;;;;;;;;;;;;;23.85;48.75;99478.06;2054609;28;19922;-64
2021/08/30 01:08:15;;;;;;;;;;;;;;;23.87;48.83;99478.72;2054170;28;20003;-65
2021/08/30 01:09:15;;;;;;;;;;;;;;;23.86;48.75;99474.28;2058932;28;19928;-64
2021/08/30 01:10:20;;;;;;;;;;;;;;;23.87;48.71;99478.72;2057652;28;19917;-65
2021/08/30 01:11:23;;;;;;;;;;;;;;;23.86;48.83;99473.41;2056140;28;19924;-64
2021/08/30 01:12:26;;;;;;;;;;;;;;;23.86;48.88;99467.91;2057294;28;20000;-65
2021/08/30 01:13:30;;;;;;;;;;;;;;;23.85;48.91;99475.31;2055203;28;20036;-65
2021/08/30 01:14:33;;;;;;;;;;;;;;;23.86;48.63;99478.91;2056026;28;20016;-65
2021/08/30 01:15:40;;;;;;;;;;;;;;;23.85;48.74;99480.81;2060091;28;20101;-65
2021/08/30 01:16:42;;;;;;;;;;;;;;;23.85;48.76;99478.06;2056974;28;19980;-65
2021/08/30 01:17:44;;;;;;;;;;;;;;;23.85;48.77;99480.81;2054227;28;19928;-65
2021/08/30 01:18:44;;;;;;;;;;;;;;;23.85;48.86;99472.56;2066119;28;19929;-65
2021/08/30 01:20:01;;;;;;;;;;;;;;;23.86;48.84;99478.91;2068435;28;20103;-64
2021/08/30 01:21:08;;;;;;;;;;;;;;;23.85;48.95;99478.06;2059139;28;20373;-65
2021/08/30 01:22:08;;;;;;;;;;;;;;;23.85;48.89;99483.56;2057793;28;19920;-65
2021/08/30 01:23:10;;;;;;;;;;;;;;;23.84;48.87;99476.38;2059772;28;20016;-64
2021/08/30 01:24:12;;;;;;;;;;;;;;;23.85;48.79;99478.06;2057429;28;19921;-65
2021/08/30 01:25:14;;;;;;;;;;;;;;;23.84;48.82;99481.88;2055090;28;20443;-65
2021/08/30 01:26:15;;;;;;;;;;;;;;;23.85;48.80;99478.06;2065760;28;20250;-65
2021/08/30 01:27:16;;;;;;;;;;;;;;;23.85;48.89;99483.56;2058507;28;19921;-64
2021/08/30 01:28:17;;;;;;;;;;;;;;;23.85;48.86;99477.22;2053218;28;19922;-65
2021/08/30 01:29:17;;;;;;;;;;;;;;;23.85;48.81;99471.72;2054300;28;19928;-65
2021/08/30 01:30:20;;;;;;;;;;;;;;;23.85;48.91;99474.47;2061126;28;19914;-65
2021/08/30 01:31:37;;;;;;;;;;;;;;;23.85;48.88;99477.22;2059109;28;20016;-64
2021/08/30 01:32:39;;;;;;;;;;;;;;;23.85;48.88;99468.97;2057756;28;20654;-64
2021/08/30 01:33:40;;;;;;;;;;;;;;;23.84;48.91;99465.38;2060267;28;19928;-64
2021/08/30 01:34:41;;;;;;;;;;;;;;;23.84;48.88;99465.38;2071695;28;21122;-64
2021/08/30 01:35:41;;;;;;;;;;;;;;;23.83;48.85;99469.16;2070963;28;19932;-64
2021/08/30 01:36:43;;;;;;;;;;;;;;;23.83;48.89;99477.41;2054955;28;20020;-64
2021/08/30 01:37:45;;;;;;;;;;;;;;;23.83;48.86;99471.91;2054013;28;19921;-64
2021/08/30 01:38:46;;;;;;;;;;;;;;;23.83;48.97;99474.66;2058378;28;20507;-64
2021/08/30 01:39:47;;;;;;;;;;;;;;;23.83;49.03;99474.66;2055861;28;19928;-64
2021/08/30 01:40:47;;;;;;;;;;;;;;;23.82;48.98;99472.97;2056851;28;19960;-64
2021/08/30 01:41:48;;;;;;;;;;;;;;;23.83;48.99;99468.31;2056019;28;19925;-63
2021/08/30 01:42:51;;;;;;;;;;;;;;;23.83;48.98;99468.31;2059089;28;19951;-64
2021/08/30 01:43:52;;;;;;;;;;;;;;;23.82;49.00;99472.97;2054837;28;19918;-64
2021/08/30 01:44:53;;;;;;;;;;;;;;;23.82;49.04;99466.63;2065807;28;19913;-64
2021/08/30 01:45:55;;;;;;;;;;;;;;;23.83;49.00;99473.81;2069707;28;19929;-64
2021/08/30 01:46:56;;;;;;;;;;;;;;;23.82;49.06;99461.97;2059277;28;19974;-64
2021/08/30 01:47:58;;;;;;;;;;;;;;;23.83;49.04;99468.31;2054266;28;19933;-64
2021/08/30 01:48:59;;;;;;;;;;;;;;;23.82;49.06;99461.09;2058635;28;19928;-64
2021/08/30 01:50:04;;;;;;;;;;;;;;;23.82;49.02;99466.63;2058545;28;20218;-64
2021/08/30 01:51:04;;;;;;;;;;;;;;;23.82;49.05;99467.47;2058154;28;19992;-64
2021/08/30 01:52:05;;;;;;;;;;;;;;;23.82;49.02;99469.38;2055038;28;19921;-64
2021/08/30 01:53:07;;;;;;;;;;;;;;;23.81;49.10;99465.75;2056982;28;19913;-64
2021/08/30 01:54:08;;;;;;;;;;;;;;;23.82;49.09;99466.63;2058907;28;19979;-64
2021/08/30 01:56:16;;;;;;;;;;;;;;;23.81;49.03;99467.66;2072128;28;19920;-64
2021/08/30 01:57:20;;;;;;;;;;;;;;;23.81;49.06;99474.00;2073847;28;20687;-64
2021/08/30 02:00:45;;;;;;;;;;;;;;;23.81;49.13;99470.41;2057978;28;19964;-64
2021/08/30 02:01:45;;;;;;;;;;;;;;;23.80;49.21;99472.31;2058027;28;19910;-64
2021/08/30 02:02:45;;;;;;;;;;;;;;;23.80;49.12;99475.06;2057931;28;19921;-64
2021/08/30 02:03:47;;;;;;;;;;;;;;;23.80;49.12;99466.78;2059460;28;19921;-64
2021/08/30 02:04:48;;;;;;;;;;;;;;;23.81;49.14;99478.66;2056180;28;19937;-64
2021/08/30 02:05:49;;;;;;;;;;;;;;;23.80;49.14;99475.06;2061114;28;20015;-64
2021/08/30 02:06:50;;;;;;;;;;;;;;;23.80;49.16;99477.81;2054528;28;20015;-64
2021/08/30 02:07:50;;;;;;;;;;;;;;;23.80;49.09;99469.56;2057093;28;19909;-64
2021/08/30 02:08:52;;;;;;;;;;;;;;;23.80;49.18;99483.31;2052612;28;19913;-64
2021/08/30 02:09:52;;;;;;;;;;;;;;;23.81;49.19;99471.25;2053945;28;19917;-63
2021/08/30 02:10:59;;;;;;;;;;;;;;;23.80;49.14;99475.06;2058138;28;19910;-63
2021/08/30 02:12:00;;;;;;;;;;;;;;;23.80;49.10;99474.22;2055682;28;19991;-64
2021/08/30 02:13:00;;;;;;;;;;;;;;;23.79;49.16;99470.59;2060845;28;19929;-63
2021/08/30 02:14:02;;;;;;;;;;;;;;;23.79;49.17;99476.13;2058231;28;19929;-63
2021/08/30 02:15:03;;;;;;;;;;;;;;;23.79;49.18;99478.88;2054079;28;19952;-63
2021/08/30 02:16:04;;;;;;;;;;;;;;;23.79;49.25;99478.88;2057691;28;19936;-63
2021/08/30 02:17:08;;;;;;;;;;;;;;;23.79;49.21;99478.88;2074373;28;19920;-63
2021/08/30 02:18:16;;;;;;;;;;;;;;;23.78;49.15;99477.13;2069155;28;19925;-63
2021/08/30 02:19:32;;;;;;;;;;;;;;;23.79;49.18;99484.38;2053863;28;20019;-64
2021/08/30 02:20:33;;;;;;;;;;;;;;;23.79;49.29;99489.88;2058535;28;20377;-63
2021/08/30 02:21:41;;;;;;;;;;;;;;;23.79;49.22;99484.38;2057423;28;20047;-63
2021/08/30 02:22:42;;;;;;;;;;;;;;;23.78;49.23;99482.66;2056666;28;20901;-63
2021/08/30 02:24:01;;;;;;;;;;;;;;;23.78;49.17;99485.41;2056042;28;20008;-63
2021/08/30 02:25:04;;;;;;;;;;;;;;;23.79;49.23;99483.50;2056138;28;19914;-63
2021/08/30 02:26:09;;;;;;;;;;;;;;;23.78;49.23;99482.66;2058129;28;20040;-66
2021/08/30 02:27:14;;;;;;;;;;;;;;;23.78;49.27;99481.81;2055991;28;19928;-64
2021/08/30 02:28:14;;;;;;;;;;;;;;;23.77;49.32;99491.97;2058864;28;19925;-65
2021/08/30 02:29:17;;;;;;;;;;;;;;;23.78;49.18;99481.81;2062522;28;20454;-64
2021/08/30 02:30:20;;;;;;;;;;;;;;;23.79;49.18;99483.50;2064468;28;19920;-64
2021/08/30 02:31:20;;;;;;;;;;;;;;;23.77;49.31;99486.47;2053084;28;19929;-64
2021/08/30 02:32:21;;;;;;;;;;;;;;;23.77;49.24;99483.72;2056716;28;19928;-64
2021/08/30 02:33:23;;;;;;;;;;;;;;;23.77;49.25;99485.63;2057967;28;20420;-64
2021/08/30 02:34:25;;;;;;;;;;;;;;;23.78;49.31;99488.16;2056599;28;19925;-64
2021/08/30 02:35:29;;;;;;;;;;;;;;;23.77;49.28;99486.47;2059030;28;20506;-64
2021/08/30 02:36:29;;;;;;;;;;;;;;;23.76;49.17;99490.25;2059099;28;19927;-64
2021/08/30 02:37:30;;;;;;;;;;;;;;;23.77;49.27;99486.47;2060400;28;20408;-64
2021/08/30 02:38:33;;;;;;;;;;;;;;;23.78;49.29;99482.66;2061007;28;20392;-64
2021/08/30 02:39:34;;;;;;;;;;;;;;;23.77;49.26;99483.72;2057485;28;19924;-64
2021/08/30 02:40:35;;;;;;;;;;;;;;;23.76;49.12;99484.75;2058531;28;19921;-64
2021/08/30 02:41:36;;;;;;;;;;;;;;;23.76;49.28;99484.75;2057938;28;20484;-64
2021/08/30 02:42:38;;;;;;;;;;;;;;;23.77;49.28;99486.47;2057137;28;19925;-64
2021/08/30 02:43:39;;;;;;;;;;;;;;;23.77;49.25;99480.09;2057393;28;19957;-64
2021/08/30 02:44:40;;;;;;;;;;;;;;;23.77;49.33;99480.09;2055056;28;19925;-64
2021/08/30 02:45:41;;;;;;;;;;;;;;;23.77;49.31;99480.97;2058117;28;19940;-64
2021/08/30 02:46:43;;;;;;;;;;;;;;;23.78;49.27;99482.66;2057216;28;19961;-64
2021/08/30 02:47:44;;;;;;;;;;;;;;;23.78;49.38;99492.81;2054747;28;19910;-64
2021/08/30 02:48:45;;;;;;;;;;;;;;;23.77;49.29;99486.47;2055195;28;19921;-64
2021/08/30 02:49:46;;;;;;;;;;;;;;;23.77;49.32;99486.47;2055549;28;19910;-64
2021/08/30 02:50:47;;;;;;;;;;;;;;;23.77;49.17;99480.97;2057059;28;19991;-64
2021/08/30 02:51:48;;;;;;;;;;;;;;;23.76;49.26;99479.22;2059231;28;20667;-63
2021/08/30 02:52:48;;;;;;;;;;;;;;;23.76;49.39;99490.25;2059315;28;20039;-64
2021/08/30 02:53:49;;;;;;;;;;;;;;;23.75;49.26;99483.88;2055088;28;19917;-64
2021/08/30 02:54:51;;;;;;;;;;;;;;;23.78;49.25;99481.81;2060300;28;19925;-64
2021/08/30 02:55:52;;;;;;;;;;;;;;;23.76;49.28;99479.22;2060174;28;19928;-64
2021/08/30 02:56:52;;;;;;;;;;;;;;;23.76;49.28;99481.97;2070123;28;20016;-63
2021/08/30 02:57:53;;;;;;;;;;;;;;;23.75;49.38;99488.56;2058119;28;20042;-64
2021/08/30 02:58:54;;;;;;;;;;;;;;;23.77;49.33;99482.88;2056863;28;19921;-64
2021/08/30 02:59:55;;;;;;;;;;;;;;;23.76;49.19;99481.97;2058037;28;19969;-64
2021/08/30 03:00:56;;;;;;;;;;;;;;;23.76;49.35;99487.50;2059340;28;20432;-64
2021/08/30 03:01:57;;;;;;;;;;;;;;;23.76;49.27;99479.22;2058862;28;19932;-64
2021/08/30 03:02:58;;;;;;;;;;;;;;;23.75;49.27;99477.53;2058215;28;20629;-64
2021/08/30 03:03:59;;;;;;;;;;;;;;;23.75;49.28;99477.53;2057774;28;20824;-64
2021/08/30 03:04:59;;;;;;;;;;;;;;;23.75;49.33;99480.28;2057702;28;19914;-63
2021/08/30 03:06:00;;;;;;;;;;;;;;;23.75;49.36;99478.38;2056577;28;20135;-64
2021/08/30 03:07:01;;;;;;;;;;;;;;;23.75;49.33;99483.03;2058893;28;19931;-64
2021/08/30 03:08:01;;;;;;;;;;;;;;;23.74;49.40;99479.44;2056865;28;19924;-64
2021/08/30 03:09:02;;;;;;;;;;;;;;;23.75;49.36;99480.28;2056431;28;20462;-64
2021/08/30 03:10:03;;;;;;;;;;;;;;;23.75;49.27;99480.28;2058090;28;19926;-64
2021/08/30 03:11:05;;;;;;;;;;;;;;;23.74;49.33;99481.34;2060470;28;19925;-64
2021/08/30 03:12:06;;;;;;;;;;;;;;;23.75;49.52;99481.13;2057863;28;19925;-64
2021/08/30 03:13:07;;;;;;;;;;;;;;;23.75;49.32;99472.03;2078911;28;20447;-64
2021/08/30 03:14:08;;;;;;;;;;;;;;;23.75;49.40;99477.53;2074126;28;19924;-64
2021/08/30 03:15:11;;;;;;;;;;;;;;;23.75;49.32;99477.53;2053853;28;19929;-63
2021/08/30 03:16:14;;;;;;;;;;;;;;;23.74;49.28;99476.69;2058179;28;20005;-65
2021/08/30 03:17:16;;;;;;;;;;;;;;;23.75;49.34;99472.03;2056648;28;19922;-63
2021/08/30 03:18:17;;;;;;;;;;;;;;;23.75;49.37;99474.78;2057507;28;20004;-63
2021/08/30 03:19:17;;;;;;;;;;;;;;;23.74;49.33;99479.44;2058145;28;20103;-63
2021/08/30 03:20:19;;;;;;;;;;;;;;;23.75;49.36;99477.53;2055828;28;19922;-63
2021/08/30 03:21:20;;;;;;;;;;;;;;;23.75;49.38;99477.53;2058252;28;19918;-63
2021/08/30 03:22:21;;;;;;;;;;;;;;;23.75;49.42;99472.03;2058956;28;20101;-63
2021/08/30 03:23:22;;;;;;;;;;;;;;;23.74;49.31;99475.84;2060807;28;19921;-64
2021/08/30 03:24:23;;;;;;;;;;;;;;;23.75;49.34;99483.03;2055439;28;19961;-64
2021/08/30 03:25:27;;;;;;;;;;;;;;;23.74;49.42;99464.84;2058980;28;19913;-64
2021/08/30 03:26:28;;;;;;;;;;;;;;;23.74;49.41;99473.09;2058102;28;20231;-63
2021/08/30 03:27:29;;;;;;;;;;;;;;;23.75;49.36;99472.88;2059919;28;19964;-63
2021/08/30 03:28:30;;;;;;;;;;;;;;;23.74;49.31;99473.09;2059107;28;19921;-63
2021/08/30 03:29:31;;;;;;;;;;;;;;;23.75;49.33;99472.03;2061459;28;19917;-63
2021/08/30 03:30:31;;;;;;;;;;;;;;;23.74;49.38;99470.34;2060299;28;19929;-64
2021/08/30 03:31:32;;;;;;;;;;;;;;;23.75;49.41;99474.78;2060431;28;19919;-63
2021/08/30 03:32:34;;;;;;;;;;;;;;;23.75;49.44;99477.53;2057419;28;20003;-63
2021/08/30 03:33:34;;;;;;;;;;;;;;;23.73;49.44;99474.13;2067762;28;19991;-64
2021/08/30 03:34:35;;;;;;;;;;;;;;;23.73;49.44;99474.13;2068125;28;20181;-63
2021/08/30 03:35:36;;;;;;;;;;;;;;;23.73;49.36;99474.13;2059896;28;19925;-63
2021/08/30 03:36:37;;;;;;;;;;;;;;;23.73;49.34;99472.22;2056090;28;19910;-63
2021/08/30 03:37:41;;;;;;;;;;;;;;;23.73;49.44;99471.38;2060777;28;19921;-63
2021/08/30 03:38:42;;;;;;;;;;;;;;;23.74;49.49;99473.09;2061406;28;21250;-63
2021/08/30 03:39:43;;;;;;;;;;;;;;;23.74;49.45;99475.84;2055575;28;20062;-63
2021/08/30 03:40:44;;;;;;;;;;;;;;;23.74;49.37;99473.09;2059797;28;19917;-63
2021/08/30 03:41:45;;;;;;;;;;;;;;;23.73;49.39;99468.63;2060619;28;19932;-63
2021/08/30 03:42:46;;;;;;;;;;;;;;;23.73;49.44;99463.13;2055334;28;19917;-63
2021/08/30 03:43:47;;;;;;;;;;;;;;;23.73;49.39;99468.63;2059127;28;19921;-63
2021/08/30 03:44:47;;;;;;;;;;;;;;;23.74;49.52;99470.34;2058401;28;19921;-63
2021/08/30 03:45:48;;;;;;;;;;;;;;;23.72;49.35;99470.50;2059403;28;19929;-64
2021/08/30 03:46:48;;;;;;;;;;;;;;;23.72;49.50;99467.75;2058332;28;19917;-64
2021/08/30 03:47:49;;;;;;;;;;;;;;;23.73;49.43;99474.13;2054997;28;19960;-63
2021/08/30 03:48:49;;;;;;;;;;;;;;;23.73;49.46;99468.63;2061791;28;19920;-64
2021/08/30 03:49:50;;;;;;;;;;;;;;;23.73;49.44;99474.13;2055101;28;19941;-63
2021/08/30 03:50:51;;;;;;;;;;;;;;;23.72;49.42;99473.25;2058079;28;20410;-64
2021/08/30 03:51:52;;;;;;;;;;;;;;;23.72;49.54;99477.91;2060326;28;19925;-65
2021/08/30 03:52:53;;;;;;;;;;;;;;;23.72;49.61;99478.75;2055927;28;19986;-65
2021/08/30 03:53:54;;;;;;;;;;;;;;;23.72;49.50;99477.91;2059045;28;19914;-65
2021/08/30 03:54:54;;;;;;;;;;;;;;;23.72;49.55;99483.41;2060804;28;19926;-65
2021/08/30 03:55:55;;;;;;;;;;;;;;;23.72;49.45;99477.91;2055567;28;19928;-64
2021/08/30 03:56:56;;;;;;;;;;;;;;;23.72;49.49;99476.00;2059719;28;19936;-65
2021/08/30 03:57:58;;;;;;;;;;;;;;;23.71;49.54;99478.94;2059678;28;20465;-65
2021/08/30 03:59:00;;;;;;;;;;;;;;;23.72;49.55;99477.91;2055141;28;20287;-65
2021/08/30 04:00:01;;;;;;;;;;;;;;;23.71;49.50;99476.19;2058670;28;19960;-64
2021/08/30 04:01:04;;;;;;;;;;;;;;;23.71;49.50;99477.06;2058652;28;19910;-65
2021/08/30 04:02:06;;;;;;;;;;;;;;;23.70;49.51;99474.50;2055950;28;19922;-63
2021/08/30 04:03:08;;;;;;;;;;;;;;;23.71;49.50;99476.19;2056201;28;20396;-65
2021/08/30 04:04:14;;;;;;;;;;;;;;;23.71;49.55;99474.31;2057112;28;19921;-65
2021/08/30 04:05:18;;;;;;;;;;;;;;;23.71;49.54;99473.44;2070592;28;19967;-64
2021/08/30 04:06:18;;;;;;;;;;;;;;;23.71;49.59;99476.19;2072671;28;20462;-64
2021/08/30 04:07:19;;;;;;;;;;;;;;;23.70;49.49;99463.50;2057049;28;20495;-64
2021/08/30 04:08:20;;;;;;;;;;;;;;;23.70;49.56;99471.75;2068880;28;19925;-64
2021/08/30 04:09:21;;;;;;;;;;;;;;;23.71;49.58;99476.19;2071299;28;19925;-64
2021/08/30 04:10:21;;;;;;;;;;;;;;;23.70;49.48;99469.84;2055648;28;20399;-64
2021/08/30 04:11:22;;;;;;;;;;;;;;;23.70;49.62;99469.00;2056522;28;20603;-64
2021/08/30 04:12:23;;;;;;;;;;;;;;;23.70;49.53;99471.75;2057999;28;20011;-64
2021/08/30 04:13:23;;;;;;;;;;;;;;;23.70;49.69;99463.50;2056325;28;19922;-64
2021/08/30 04:14:24;;;;;;;;;;;;;;;23.70;49.63;99469.84;2055652;28;19984;-64
2021/08/30 04:15:24;;;;;;;;;;;;;;;23.70;49.61;99469.00;2057012;28;19977;-65
2021/08/30 04:16:25;;;;;;;;;;;;;;;23.70;49.56;99471.75;2058764;28;19928;-64
2021/08/30 04:17:25;;;;;;;;;;;;;;;23.68;49.61;99466.41;2070254;28;20003;-64
2021/08/30 04:18:25;;;;;;;;;;;;;;;23.69;49.68;99470.03;2065392;28;19913;-64
2021/08/30 04:19:25;;;;;;;;;;;;;;;23.68;49.69;99471.09;2059190;28;20371;-64
2021/08/30 04:20:26;;;;;;;;;;;;;;;23.67;49.71;99470.22;2060677;28;19928;-65
2021/08/30 04:21:26;;;;;;;;;;;;;;;23.70;49.58;99471.75;2060205;28;19921;-64
2021/08/30 04:22:27;;;;;;;;;;;;;;;23.69;49.69;99468.16;2060591;28;19914;-64
2021/08/30 04:23:27;;;;;;;;;;;;;;;23.69;49.65;99464.50;2054612;28;19920;-64
2021/08/30 04:24:27;;;;;;;;;;;;;;;23.69;49.59;99468.16;2062927;28;19909;-64
2021/08/30 04:25:28;;;;;;;;;;;;;;;23.69;49.71;99465.41;2061328;28;19929;-65
2021/08/30 04:26:28;;;;;;;;;;;;;;;23.69;49.66;99465.41;2058705;28;19914;-64
2021/08/30 04:27:28;;;;;;;;;;;;;;;23.69;49.58;99464.50;2060003;28;19921;-64
2021/08/30 04:28:29;;;;;;;;;;;;;;;23.68;49.63;99455.41;2055404;28;19944;-64
2021/08/30 04:29:31;;;;;;;;;;;;;;;23.68;49.73;99463.66;2061592;28;19917;-64
2021/08/30 04:30:31;;;;;;;;;;;;;;;23.69;49.76;99461.75;2061925;28;19925;-64
2021/08/30 04:31:32;;;;;;;;;;;;;;;23.68;49.64;99465.56;2061862;28;19929;-64
2021/08/30 04:32:35;;;;;;;;;;;;;;;23.68;49.64;99465.56;2061683;28;19929;-64
2021/08/30 04:33:35;;;;;;;;;;;;;;;23.68;49.72;99471.09;2061372;28;20004;-64
2021/08/30 04:34:36;;;;;;;;;;;;;;;23.68;49.73;99476.59;2060593;28;19920;-64
2021/08/30 04:35:36;;;;;;;;;;;;;;;23.68;49.82;99482.94;2053773;28;19922;-64
2021/08/30 04:36:37;;;;;;;;;;;;;;;23.68;49.75;99476.59;2058137;28;19960;-64
2021/08/30 04:37:37;;;;;;;;;;;;;;;23.68;49.76;99471.09;2056743;28;19932;-64
2021/08/30 04:38:37;;;;;;;;;;;;;;;23.68;49.65;99476.59;2056437;28;19922;-64
2021/08/30 04:39:38;;;;;;;;;;;;;;;23.67;49.66;99481.25;2055796;28;20379;-64
2021/08/30 04:40:38;;;;;;;;;;;;;;;23.68;49.70;99482.09;2057731;28;19933;-64
2021/08/30 04:41:38;;;;;;;;;;;;;;;23.68;49.67;99482.09;2058371;28;20092;-64
2021/08/30 04:42:39;;;;;;;;;;;;;;;23.68;49.70;99477.44;2060556;28;19921;-64
2021/08/30 04:43:39;;;;;;;;;;;;;;;23.69;49.54;99478.28;2059026;28;19929;-64
2021/08/30 04:44:40;;;;;;;;;;;;;;;23.67;49.61;99472.97;2057418;28;19921;-64
2021/08/30 04:45:42;;;;;;;;;;;;;;;23.68;49.78;99473.84;2058273;28;20011;-64
2021/08/30 04:46:42;;;;;;;;;;;;;;;23.67;49.64;99475.75;2058963;28;20296;-64
2021/08/30 04:47:43;;;;;;;;;;;;;;;23.67;49.76;99474.91;2054141;28;19910;-64
2021/08/30 04:48:43;;;;;;;;;;;;;;;23.67;49.61;99474.91;2054854;28;19914;-64
2021/08/30 04:49:44;;;;;;;;;;;;;;;23.66;49.63;99476.75;2060962;28;19913;-65
2021/08/30 04:50:44;;;;;;;;;;;;;;;23.67;49.72;99474.91;2057893;28;20004;-64
2021/08/30 04:51:44;;;;;;;;;;;;;;;23.66;49.67;99473.16;2058645;28;20036;-64
2021/08/30 04:52:45;;;;;;;;;;;;;;;23.67;49.61;99474.91;2056757;28;19929;-64
2021/08/30 04:53:45;;;;;;;;;;;;;;;23.65;49.78;99477.81;2061245;28;19914;-63
2021/08/30 04:54:45;;;;;;;;;;;;;;;23.66;49.70;99476.75;2056614;28;19909;-64
2021/08/30 04:55:46;;;;;;;;;;;;;;;23.66;49.80;99473.16;2056677;28;20001;-63
2021/08/30 04:56:46;;;;;;;;;;;;;;;23.65;49.74;99480.56;2053960;28;19918;-63
2021/08/30 04:57:47;;;;;;;;;;;;;;;23.65;49.78;99476.97;2057045;28;19926;-63
2021/08/30 04:58:47;;;;;;;;;;;;;;;23.67;49.63;99480.41;2057261;28;19922;-63
2021/08/30 04:59:47;;;;;;;;;;;;;;;23.67;49.71;99486.75;2061177;28;19976;-63
2021/08/30 05:00:48;;;;;;;;;;;;;;;23.67;49.83;99485.91;2069416;28;19917;-64
2021/08/30 05:01:48;;;;;;;;;;;;;;;23.65;49.70;99482.47;2069674;28;20398;-64
2021/08/30 05:02:48;;;;;;;;;;;;;;;23.65;49.77;99483.34;2059307;28;20156;-64
2021/08/30 05:03:49;;;;;;;;;;;;;;;23.66;49.67;99486.94;2073709;28;20302;-64
2021/08/30 05:04:49;;;;;;;;;;;;;;;23.66;49.77;99489.69;2075724;28;19954;-64
2021/08/30 05:05:49;;;;;;;;;;;;;;;23.66;49.80;99485.03;2055186;28;20004;-64
2021/08/30 05:06:49;;;;;;;;;;;;;;;23.65;49.77;99488.00;2060841;28;20631;-64
2021/08/30 05:07:50;;;;;;;;;;;;;;;23.65;49.79;99488.84;2055673;28;19928;-65
2021/08/30 05:08:50;;;;;;;;;;;;;;;23.65;49.81;99488.00;2060002;28;19937;-64
2021/08/30 05:09:50;;;;;;;;;;;;;;;23.66;49.69;99489.69;2054420;28;19928;-64
2021/08/30 05:10:51;;;;;;;;;;;;;;;23.66;49.74;99489.69;2057814;28;20020;-63
2021/08/30 05:11:51;;;;;;;;;;;;;;;23.65;49.66;99488.84;2058800;28;19924;-63
2021/08/30 05:12:51;;;;;;;;;;;;;;;23.65;49.75;99488.00;2062491;28;19971;-64
2021/08/30 05:13:52;;;;;;;;;;;;;;;23.65;49.72;99493.50;2056203;28;20371;-63
2021/08/30 05:14:54;;;;;;;;;;;;;;;23.66;49.75;99497.94;2055539;28;20285;-63
2021/08/30 05:15:54;;;;;;;;;;;;;;;23.65;49.62;99499.00;2058404;28;20012;-64
2021/08/30 05:16:55;;;;;;;;;;;;;;;23.66;49.79;99506.19;2074132;28;19916;-63
2021/08/30 05:17:55;;;;;;;;;;;;;;;23.65;49.68;99504.50;2075761;28;20435;-63
2021/08/30 05:18:55;;;;;;;;;;;;;;;23.64;49.68;99500.91;2056986;28;19929;-63
2021/08/30 05:19:56;;;;;;;;;;;;;;;23.64;49.69;99508.28;2055571;28;19921;-63
2021/08/30 05:20:57;;;;;;;;;;;;;;;23.64;49.80;99502.78;2068303;28;20613;-64
2021/08/30 05:21:57;;;;;;;;;;;;;;;23.64;49.80;99502.78;2066006;28;19933;-64
2021/08/30 05:22:57;;;;;;;;;;;;;;;23.65;49.73;99507.25;2058205;28;19936;-64